createdAt,value
2019-05-13T00:00:03.736Z,22.20
2019-05-13T00:01:07.023Z,22.50
2019-05-13T00:02:04.549Z,23.80
2019-05-13T00:03:03.655Z,23.50
2019-05-13T00:04:03.623Z,23.30
2019-05-13T00:05:03.899Z,23.20
2019-05-13T00:06:04.224Z,23.20
2019-05-13T00:07:04.674Z,22.80
2019-05-13T00:08:03.455Z,23.10
2019-05-13T00:09:03.516Z,22.70
2019-05-13T00:10:04.052Z,22.70
2019-05-13T00:11:04.398Z,23.00
2019-05-13T00:12:04.774Z,22.70
2019-05-13T00:13:04.517Z,22.80
2019-05-13T00:14:04.420Z,22.80
2019-05-13T00:15:03.741Z,22.40
2019-05-13T00:16:03.676Z,22.90
2019-05-13T00:17:04.200Z,23.40
2019-05-13T00:18:03.873Z,22.90
2019-05-13T00:19:04.134Z,23.90
2019-05-13T00:20:03.936Z,23.40
2019-05-13T00:21:03.643Z,23.60
2019-05-13T00:22:03.822Z,24.10
2019-05-13T00:23:03.993Z,22.60
2019-05-13T00:24:04.133Z,22.90
2019-05-13T00:25:04.004Z,23.30
2019-05-13T00:26:03.839Z,23.00
2019-05-13T00:27:03.895Z,23.30
2019-05-13T00:28:04.107Z,23.10
2019-05-13T00:29:04.121Z,21.60
2019-05-13T00:30:04.297Z,23.30
2019-05-13T00:31:03.452Z,22.20
2019-05-13T00:32:04.737Z,22.90
2019-05-13T00:33:03.857Z,21.60
2019-05-13T00:34:03.693Z,22.50
2019-05-13T00:35:03.934Z,21.40
2019-05-13T00:36:04.074Z,21.50
2019-05-13T00:37:08.895Z,21.30
2019-05-13T00:38:03.791Z,21.70
2019-05-13T00:39:03.902Z,22.90
2019-05-13T00:40:03.982Z,23.00
2019-05-13T00:41:03.711Z,19.90
2019-05-13T00:42:04.064Z,20.00
2019-05-13T00:43:03.815Z,20.60
2019-05-13T00:44:03.854Z,20.10
2019-05-13T00:45:03.999Z,20.30
2019-05-13T00:46:03.874Z,21.40
2019-05-13T00:47:04.460Z,20.70
2019-05-13T00:48:04.642Z,20.50
2019-05-13T00:49:04.566Z,20.90
2019-05-13T00:50:03.685Z,22.10
2019-05-13T00:51:03.778Z,21.30
2019-05-13T00:52:03.836Z,21.30
2019-05-13T00:53:04.343Z,20.60
2019-05-13T00:54:04.370Z,19.40
2019-05-13T00:55:04.228Z,19.40
2019-05-13T00:56:04.056Z,21.00
2019-05-13T00:57:04.212Z,20.20
2019-05-13T00:58:04.300Z,20.80
2019-05-13T00:59:03.678Z,21.00
2019-05-13T01:00:03.504Z,20.60
2019-05-13T01:01:03.590Z,20.50
2019-05-13T01:02:03.625Z,20.20
2019-05-13T01:03:04.127Z,21.80
2019-05-13T01:04:03.996Z,21.80
2019-05-13T01:05:04.275Z,22.10
2019-05-13T01:06:04.283Z,20.90
2019-05-13T01:07:04.410Z,22.20
2019-05-13T01:08:04.346Z,21.70
2019-05-13T01:09:04.144Z,22.00
2019-05-13T01:10:04.214Z,21.00
2019-05-13T01:11:04.292Z,22.40
2019-05-13T01:12:04.468Z,22.20
2019-05-13T01:13:04.649Z,22.00
2019-05-13T01:14:04.297Z,22.20
2019-05-13T01:15:04.087Z,20.60
2019-05-13T01:16:03.676Z,21.40
2019-05-13T01:17:03.838Z,20.50
2019-05-13T01:18:03.907Z,20.80
2019-05-13T01:19:04.189Z,21.50
2019-05-13T01:20:04.121Z,20.40
2019-05-13T01:21:04.213Z,18.80
2019-05-13T01:22:03.394Z,19.90
2019-05-13T01:23:03.551Z,20.00
2019-05-13T01:24:03.713Z,20.10
2019-05-13T01:25:03.948Z,19.80
2019-05-13T01:26:03.938Z,20.40
2019-05-13T01:27:03.895Z,21.10
2019-05-13T01:28:04.242Z,21.10
2019-05-13T01:29:04.087Z,20.60
2019-05-13T01:30:04.099Z,20.20
2019-05-13T01:31:04.143Z,20.60
2019-05-13T01:32:04.257Z,20.30
2019-05-13T01:33:04.233Z,20.90
2019-05-13T01:34:04.048Z,20.40
2019-05-13T01:35:04.445Z,20.50
2019-05-13T01:36:04.985Z,20.40
2019-05-13T01:37:04.130Z,21.40
2019-05-13T01:38:04.242Z,20.80
2019-05-13T01:39:04.162Z,20.50
2019-05-13T01:40:04.907Z,20.90
2019-05-13T01:41:04.259Z,21.70
2019-05-13T01:42:03.658Z,20.90
2019-05-13T01:43:03.540Z,21.10
2019-05-13T01:44:03.958Z,21.10
2019-05-13T01:45:04.478Z,20.80
2019-05-13T01:46:04.220Z,20.30
2019-05-13T01:47:04.251Z,20.70
2019-05-13T01:48:06.306Z,19.80
2019-05-13T01:49:04.888Z,20.20
2019-05-13T01:50:03.980Z,19.80
2019-05-13T01:51:03.849Z,20.60
2019-05-13T01:52:03.702Z,20.40
2019-05-13T01:53:04.183Z,19.90
2019-05-13T01:54:03.972Z,20.10
2019-05-13T01:55:04.022Z,19.70
2019-05-13T01:56:03.877Z,20.70
2019-05-13T01:57:04.119Z,20.10
2019-05-13T01:58:04.175Z,19.90
2019-05-13T01:59:03.616Z,20.60
2019-05-13T02:00:04.530Z,20.20
2019-05-13T02:01:01.747Z,21.30
2019-05-13T02:02:03.490Z,19.70
2019-05-13T02:03:03.893Z,20.10
2019-05-13T02:04:03.936Z,19.80
2019-05-13T02:05:03.743Z,19.60
2019-05-13T02:06:03.800Z,20.90
2019-05-13T02:07:04.142Z,19.50
2019-05-13T02:08:03.996Z,19.90
2019-05-13T02:09:03.834Z,20.30
2019-05-13T02:10:04.128Z,19.80
2019-05-13T02:11:04.014Z,20.60
2019-05-13T02:12:04.242Z,20.50
2019-05-13T02:13:03.839Z,19.60
2019-05-13T02:14:01.606Z,19.70
2019-05-13T02:15:04.207Z,19.80
2019-05-13T02:16:03.900Z,20.30
2019-05-13T02:17:03.954Z,20.40
2019-05-13T02:18:03.872Z,20.60
2019-05-13T02:19:03.899Z,20.30
2019-05-13T02:20:03.901Z,19.50
2019-05-13T02:21:04.855Z,20.10
2019-05-13T02:22:03.678Z,19.30
2019-05-13T02:23:03.848Z,19.00
2019-05-13T02:24:04.221Z,20.20
2019-05-13T02:25:04.154Z,20.30
2019-05-13T02:26:01.431Z,19.60
2019-05-13T02:27:03.634Z,19.90
2019-05-13T02:28:08.745Z,20.20
2019-05-13T02:29:03.662Z,20.30
2019-05-13T02:30:05.177Z,20.00
2019-05-13T02:31:01.389Z,19.80
2019-05-13T02:32:02.785Z,19.90
2019-05-13T02:33:02.753Z,19.90
2019-05-13T02:34:02.454Z,19.80
2019-05-13T02:35:02.709Z,20.20
2019-05-13T02:36:03.004Z,20.40
2019-05-13T02:37:03.337Z,20.70
2019-05-13T02:38:18.421Z,20.50
2019-05-13T02:39:02.507Z,20.20
2019-05-13T02:40:03.444Z,20.00
2019-05-13T02:41:02.825Z,20.30
2019-05-13T02:42:03.587Z,20.60
2019-05-13T02:43:02.902Z,20.80
2019-05-13T02:44:03.582Z,21.10
2019-05-13T02:45:03.772Z,20.40
2019-05-13T02:46:04.135Z,19.70
2019-05-13T02:47:03.464Z,20.30
2019-05-13T02:48:03.241Z,20.10
2019-05-13T02:49:03.265Z,20.20
2019-05-13T02:50:04.824Z,19.90
2019-05-13T02:51:03.669Z,19.70
2019-05-13T02:52:02.743Z,20.50
2019-05-13T02:53:02.404Z,19.90
2019-05-13T02:54:03.515Z,21.20
2019-05-13T02:55:03.969Z,19.90
2019-05-13T02:56:03.016Z,20.60
2019-05-13T02:57:03.677Z,20.60
2019-05-13T02:58:03.197Z,20.60
2019-05-13T02:59:03.874Z,20.70
2019-05-13T03:00:04.162Z,20.50
2019-05-13T03:01:03.179Z,20.50
2019-05-13T03:02:03.713Z,19.70
2019-05-13T03:03:03.199Z,19.70
2019-05-13T03:04:03.061Z,20.60
2019-05-13T03:05:03.222Z,20.80
2019-05-13T03:06:02.880Z,20.60
2019-05-13T03:07:02.969Z,20.50
2019-05-13T03:08:03.338Z,20.50
2019-05-13T03:09:03.137Z,20.60
2019-05-13T03:10:04.266Z,20.40
2019-05-13T03:11:03.002Z,20.40
2019-05-13T03:12:04.200Z,20.70
2019-05-13T03:13:03.546Z,20.70
2019-05-13T03:14:03.581Z,21.40
2019-05-13T03:15:02.755Z,20.90
2019-05-13T03:16:02.959Z,21.20
2019-05-13T03:17:03.139Z,20.80
2019-05-13T03:18:03.416Z,20.40
2019-05-13T03:19:02.824Z,21.90
2019-05-13T03:20:03.997Z,21.40
2019-05-13T03:21:03.298Z,20.90
2019-05-13T03:22:03.104Z,21.20
2019-05-13T03:23:02.969Z,21.60
2019-05-13T03:24:03.591Z,21.40
2019-05-13T03:25:03.173Z,20.70
2019-05-13T03:26:02.819Z,21.70
2019-05-13T03:27:02.453Z,21.70
2019-05-13T03:28:03.200Z,21.70
2019-05-13T03:29:02.817Z,20.80
2019-05-13T03:30:04.186Z,21.80
2019-05-13T03:31:06.799Z,20.10
2019-05-13T03:32:05.557Z,22.60
2019-05-13T03:33:09.034Z,21.20
2019-05-13T03:34:05.747Z,20.80
2019-05-13T03:35:06.417Z,21.70
2019-05-13T03:36:06.412Z,21.40
2019-05-13T03:37:05.466Z,22.30
2019-05-13T03:38:03.361Z,22.10
2019-05-13T03:39:06.999Z,21.00
2019-05-13T03:40:03.401Z,21.40
2019-05-13T03:41:03.227Z,21.10
2019-05-13T03:42:02.914Z,21.70
2019-05-13T03:43:02.789Z,21.40
2019-05-13T03:44:02.546Z,21.60
2019-05-13T03:45:02.974Z,21.30
2019-05-13T03:46:03.397Z,21.30
2019-05-13T03:47:03.487Z,21.70
2019-05-13T03:48:04.256Z,21.40
2019-05-13T03:49:02.474Z,21.40
2019-05-13T03:50:03.453Z,20.60
2019-05-13T03:51:02.742Z,21.80
2019-05-13T03:52:02.921Z,21.20
2019-05-13T03:53:03.069Z,20.80
2019-05-13T03:54:03.181Z,21.10
2019-05-13T03:55:03.168Z,20.70
2019-05-13T03:56:02.461Z,21.10
2019-05-13T03:57:03.536Z,20.90
2019-05-13T03:58:03.060Z,20.90
2019-05-13T03:59:02.671Z,20.40
2019-05-13T04:00:03.498Z,20.60
2019-05-13T04:01:02.870Z,21.00
2019-05-13T04:02:02.555Z,19.90
2019-05-13T04:03:03.163Z,19.70
2019-05-13T04:04:03.253Z,21.20
2019-05-13T04:05:03.758Z,21.20
2019-05-13T04:06:03.570Z,20.70
2019-05-13T04:07:02.650Z,21.60
2019-05-13T04:08:03.159Z,20.50
2019-05-13T04:09:17.245Z,20.90
2019-05-13T04:10:03.286Z,21.10
2019-05-13T04:11:02.915Z,21.30
2019-05-13T04:12:03.156Z,22.10
2019-05-13T04:13:03.456Z,21.30
2019-05-13T04:14:03.327Z,21.50
2019-05-13T04:15:03.428Z,22.10
2019-05-13T04:16:03.554Z,21.80
2019-05-13T04:17:02.889Z,22.20
2019-05-13T04:18:02.703Z,21.80
2019-05-13T04:19:02.602Z,22.20
2019-05-13T04:20:02.737Z,22.20
2019-05-13T04:21:02.704Z,22.40
2019-05-13T04:22:02.350Z,23.20
2019-05-13T04:23:02.984Z,23.30
2019-05-13T04:24:03.715Z,23.70
2019-05-13T04:25:02.524Z,24.00
2019-05-13T04:26:03.081Z,23.40
2019-05-13T04:27:02.862Z,25.20
2019-05-13T04:28:03.226Z,24.80
2019-05-13T04:29:03.052Z,24.30
2019-05-13T04:30:03.273Z,23.40
2019-05-13T04:31:02.427Z,22.50
2019-05-13T04:32:02.214Z,22.10
2019-05-13T04:33:02.407Z,20.60
2019-05-13T04:34:02.301Z,21.00
2019-05-13T04:35:03.367Z,21.10
2019-05-13T04:36:02.538Z,20.70
2019-05-13T04:37:02.499Z,20.90
2019-05-13T04:38:02.459Z,20.50
2019-05-13T04:39:03.016Z,20.00
2019-05-13T04:40:03.390Z,20.30
2019-05-13T04:41:03.150Z,20.10
2019-05-13T04:42:02.354Z,19.50
2019-05-13T04:43:02.873Z,19.80
2019-05-13T04:44:02.574Z,19.60
2019-05-13T04:45:02.940Z,19.80
2019-05-13T04:46:02.363Z,20.80
2019-05-13T04:47:03.214Z,14.30
2019-05-13T04:48:02.946Z,17.70
2019-05-13T04:49:02.246Z,17.40
2019-05-13T04:50:02.871Z,17.60
2019-05-13T04:51:02.678Z,16.30
2019-05-13T04:52:03.293Z,16.30
2019-05-13T04:53:03.023Z,15.20
2019-05-13T04:54:02.723Z,8.50
2019-05-13T04:55:02.990Z,11.10
2019-05-13T04:56:02.814Z,11.80
2019-05-13T04:57:02.673Z,11.30
2019-05-13T04:58:03.147Z,11.40
2019-05-13T04:59:02.771Z,10.20
2019-05-13T05:00:03.734Z,9.20
2019-05-13T05:01:04.812Z,9.10
2019-05-13T05:02:04.662Z,9.30
2019-05-13T05:03:03.106Z,8.30
2019-05-13T05:04:03.121Z,7.30
2019-05-13T05:05:02.986Z,7.30
2019-05-13T05:06:02.983Z,7.10
2019-05-13T05:07:02.320Z,6.70
2019-05-13T05:08:02.914Z,5.70
2019-05-13T05:09:03.038Z,5.70
2019-05-13T05:10:17.664Z,4.80
2019-05-13T05:11:02.480Z,5.10
2019-05-13T05:12:02.151Z,4.80
2019-05-13T05:13:02.166Z,4.50
2019-05-13T05:14:02.508Z,5.00
2019-05-13T05:15:02.631Z,5.20
2019-05-13T05:16:02.634Z,4.30
2019-05-13T05:16:59.529Z,4.60
2019-05-13T05:18:02.595Z,4.40
2019-05-13T05:19:02.135Z,4.80
2019-05-13T05:20:03.196Z,5.10
2019-05-13T05:21:01.500Z,4.30
2019-05-13T05:22:02.427Z,3.90
2019-05-13T05:23:01.773Z,3.70
2019-05-13T05:24:01.851Z,4.00
2019-05-13T05:25:01.547Z,3.80
2019-05-13T05:26:01.240Z,3.30
2019-05-13T05:27:01.427Z,3.80
2019-05-13T05:28:01.976Z,3.70
2019-05-13T05:28:59.391Z,3.60
2019-05-13T05:30:01.885Z,3.60
2019-05-13T05:30:59.387Z,3.80
2019-05-13T05:32:01.337Z,3.60
2019-05-13T05:33:02.018Z,3.20
2019-05-13T05:33:59.335Z,3.00
2019-05-13T05:35:01.173Z,2.90
2019-05-13T05:36:01.698Z,2.70
2019-05-13T05:37:01.397Z,2.70
2019-05-13T05:38:01.477Z,2.70
2019-05-13T05:39:01.590Z,3.00
2019-05-13T05:40:01.742Z,2.60
2019-05-13T05:41:01.549Z,2.70
2019-05-13T05:41:59.278Z,3.00
2019-05-13T05:42:59.258Z,2.70
2019-05-13T05:44:02.186Z,2.60
2019-05-13T05:44:59.213Z,2.90
2019-05-13T05:46:01.635Z,2.70
2019-05-13T05:47:02.014Z,2.60
2019-05-13T05:48:01.497Z,2.60
2019-05-13T05:48:59.191Z,2.80
2019-05-13T05:49:59.159Z,2.30
2019-05-13T05:51:01.999Z,2.70
2019-05-13T05:52:01.550Z,2.90
2019-05-13T05:52:59.171Z,2.90
2019-05-13T05:53:59.137Z,2.80
2019-05-13T05:54:59.117Z,2.60
2019-05-13T05:55:59.506Z,2.80
2019-05-13T05:57:01.149Z,2.50
2019-05-13T05:58:01.465Z,2.70
2019-05-13T05:59:02.542Z,2.30
2019-05-13T05:59:59.065Z,2.70
2019-05-13T06:00:59.077Z,2.40
2019-05-13T06:02:01.717Z,2.50
2019-05-13T06:03:02.306Z,2.50
2019-05-13T06:04:01.392Z,2.40
2019-05-13T06:04:59.015Z,2.50
2019-05-13T06:05:58.996Z,2.50
2019-05-13T06:06:58.997Z,2.40
2019-05-13T06:07:58.969Z,2.50
2019-05-13T06:08:58.968Z,2.60
2019-05-13T06:09:58.957Z,2.60
2019-05-13T06:11:00.747Z,2.40
2019-05-13T06:11:58.935Z,2.40
2019-05-13T06:12:58.935Z,2.30
2019-05-13T06:13:58.939Z,2.60
2019-05-13T06:14:58.911Z,2.40
2019-05-13T06:15:58.879Z,2.70
2019-05-13T06:16:58.917Z,2.70
2019-05-13T06:17:58.896Z,2.60
2019-05-13T06:19:01.260Z,2.40
2019-05-13T06:19:58.842Z,2.50
2019-05-13T06:20:58.875Z,2.50
2019-05-13T06:21:58.813Z,2.60
2019-05-13T06:22:58.814Z,2.50
2019-05-13T06:23:58.822Z,2.30
2019-05-13T06:25:01.273Z,2.50
2019-05-13T06:25:58.769Z,2.60
2019-05-13T06:27:01.284Z,2.60
2019-05-13T06:27:58.739Z,2.50
2019-05-13T06:28:58.752Z,2.50
2019-05-13T06:29:58.728Z,2.50
2019-05-13T06:30:58.751Z,2.40
2019-05-13T06:32:14.051Z,2.30
2019-05-13T06:33:01.612Z,2.40
2019-05-13T06:33:58.691Z,2.50
2019-05-13T06:35:01.263Z,2.50
2019-05-13T06:36:01.039Z,2.40
2019-05-13T06:36:58.684Z,2.60
2019-05-13T06:37:58.646Z,2.50
2019-05-13T06:38:58.638Z,2.50
2019-05-13T06:39:58.617Z,2.40
2019-05-13T06:41:03.542Z,2.40
2019-05-13T06:41:58.627Z,2.30
2019-05-13T06:42:58.617Z,2.50
2019-05-13T06:43:58.565Z,2.50
2019-05-13T06:44:58.642Z,2.20
2019-05-13T06:45:58.559Z,2.40
2019-05-13T06:46:58.547Z,2.40
2019-05-13T06:47:58.545Z,2.40
2019-05-13T06:48:58.508Z,2.40
2019-05-13T06:49:58.522Z,2.20
2019-05-13T06:50:58.487Z,2.50
2019-05-13T06:51:58.495Z,2.40
2019-05-13T06:52:58.482Z,2.60
2019-05-13T06:53:58.474Z,2.30
2019-05-13T06:54:58.441Z,2.20
2019-05-13T06:55:58.441Z,2.30
2019-05-13T06:56:58.424Z,2.40
2019-05-13T06:57:58.419Z,2.10
2019-05-13T06:58:58.415Z,2.30
2019-05-13T06:59:58.430Z,2.30
2019-05-13T07:00:58.897Z,2.50
2019-05-13T07:01:58.361Z,2.30
2019-05-13T07:02:58.373Z,2.20
2019-05-13T07:03:58.355Z,2.40
2019-05-13T07:04:58.345Z,2.40
2019-05-13T07:05:58.356Z,2.30
2019-05-13T07:07:09.859Z,2.40
2019-05-13T07:07:58.300Z,2.10
2019-05-13T07:08:58.314Z,2.30
2019-05-13T07:09:58.295Z,2.90
2019-05-13T07:10:58.290Z,2.40
2019-05-13T07:11:58.379Z,2.20
2019-05-13T07:12:58.239Z,1.90
2019-05-13T07:13:58.226Z,2.10
2019-05-13T07:14:58.219Z,2.60
2019-05-13T07:15:58.259Z,2.10
2019-05-13T07:16:58.245Z,2.30
2019-05-13T07:17:58.185Z,2.00
2019-05-13T07:18:58.202Z,2.10
2019-05-13T07:19:58.164Z,2.00
2019-05-13T07:21:01.978Z,2.20
2019-05-13T07:21:58.171Z,2.30
2019-05-13T07:22:58.145Z,2.10
2019-05-13T07:23:58.118Z,2.30
2019-05-13T07:24:58.103Z,2.30
2019-05-13T07:25:58.092Z,2.00
2019-05-13T07:26:58.120Z,2.00
2019-05-13T07:27:58.085Z,2.10
2019-05-13T07:28:58.554Z,2.40
2019-05-13T07:29:58.052Z,2.40
2019-05-13T07:30:58.045Z,2.20
2019-05-13T07:31:58.049Z,2.30
2019-05-13T07:32:58.027Z,2.20
2019-05-13T07:33:58.022Z,2.20
2019-05-13T07:34:58.021Z,2.60
2019-05-13T07:35:58.642Z,2.40
2019-05-13T07:36:57.973Z,2.20
2019-05-13T07:37:57.983Z,2.10
2019-05-13T07:38:57.976Z,2.30
2019-05-13T07:39:57.949Z,2.30
2019-05-13T07:40:57.927Z,2.50
2019-05-13T07:41:57.919Z,2.20
2019-05-13T07:42:57.919Z,2.30
2019-05-13T07:43:57.898Z,2.40
2019-05-13T07:44:57.891Z,2.50
2019-05-13T07:45:57.889Z,2.30
2019-05-13T07:46:57.887Z,2.40
2019-05-13T07:47:57.875Z,2.20
2019-05-13T07:48:57.866Z,2.50
2019-05-13T07:49:57.831Z,2.40
2019-05-13T07:51:00.454Z,2.50
2019-05-13T07:51:57.825Z,2.50
2019-05-13T07:52:57.835Z,2.60
2019-05-13T07:53:57.781Z,2.50
2019-05-13T07:54:57.776Z,2.40
2019-05-13T07:55:57.767Z,2.50
2019-05-13T07:56:57.773Z,2.40
2019-05-13T07:57:57.759Z,2.30
2019-05-13T07:58:57.756Z,2.50
2019-05-13T07:59:57.719Z,2.30
2019-05-13T08:00:57.727Z,2.60
2019-05-13T08:01:57.713Z,2.80
2019-05-13T08:02:57.695Z,2.30
2019-05-13T08:03:57.687Z,2.40
2019-05-13T08:04:57.655Z,2.30
2019-05-13T08:05:57.648Z,2.60
2019-05-13T08:06:57.639Z,2.20
2019-05-13T08:07:57.642Z,2.40
2019-05-13T08:08:57.644Z,2.40
2019-05-13T08:10:00.236Z,2.60
2019-05-13T08:10:57.592Z,2.70
2019-05-13T08:12:08.664Z,2.30
2019-05-13T08:12:57.573Z,2.20
2019-05-13T08:13:57.569Z,2.30
2019-05-13T08:14:57.587Z,2.10
2019-05-13T08:15:57.531Z,2.10
2019-05-13T08:16:57.525Z,2.20
2019-05-13T08:17:57.509Z,2.40
2019-05-13T08:18:57.505Z,2.30
2019-05-13T08:19:57.520Z,2.00
2019-05-13T08:20:57.499Z,2.20
2019-05-13T08:21:57.472Z,2.20
2019-05-13T08:22:57.470Z,2.20
2019-05-13T08:23:57.449Z,2.10
2019-05-13T08:24:57.485Z,2.20
2019-05-13T08:25:57.459Z,2.10
2019-05-13T08:26:57.442Z,2.10
2019-05-13T08:27:57.404Z,2.20
2019-05-13T08:29:01.940Z,2.40
2019-05-13T08:29:57.379Z,2.10
2019-05-13T08:30:57.394Z,2.30
2019-05-13T08:31:57.371Z,2.40
2019-05-13T08:32:57.384Z,2.30
2019-05-13T08:33:57.337Z,2.10
2019-05-13T08:35:02.022Z,2.20
2019-05-13T08:35:58.833Z,2.20
2019-05-13T08:36:57.616Z,2.20
2019-05-13T08:37:57.304Z,2.10
2019-05-13T08:38:57.307Z,2.50
2019-05-13T08:39:57.267Z,2.40
2019-05-13T08:40:57.258Z,2.20
2019-05-13T08:42:11.805Z,2.10
2019-05-13T08:42:57.247Z,1.90
2019-05-13T08:43:57.241Z,2.10
2019-05-13T08:44:57.222Z,1.80
2019-05-13T08:45:57.238Z,2.20
2019-05-13T08:46:57.190Z,2.20
2019-05-13T08:47:57.176Z,2.10
2019-05-13T08:48:57.185Z,2.20
2019-05-13T08:50:00.334Z,2.20
2019-05-13T08:50:58.198Z,2.20
2019-05-13T08:51:57.133Z,2.20
2019-05-13T08:52:57.123Z,1.80
2019-05-13T08:53:57.107Z,1.90
2019-05-13T08:54:57.100Z,1.90
2019-05-13T08:55:57.110Z,1.70
2019-05-13T08:56:57.081Z,1.70
2019-05-13T08:57:57.077Z,1.80
2019-05-13T08:58:57.054Z,1.70
2019-05-13T08:59:57.045Z,1.80
2019-05-13T09:00:59.182Z,1.70
2019-05-13T09:01:57.153Z,1.40
2019-05-13T09:02:57.012Z,1.60
2019-05-13T09:03:57.015Z,1.70
2019-05-13T09:04:56.990Z,1.90
2019-05-13T09:05:56.977Z,1.80
2019-05-13T09:06:57.034Z,1.90
2019-05-13T09:07:56.986Z,1.70
2019-05-13T09:08:56.941Z,2.10
2019-05-13T09:09:56.950Z,1.70
2019-05-13T09:10:57.375Z,1.90
2019-05-13T09:11:56.936Z,2.00
2019-05-13T09:12:56.907Z,1.70
2019-05-13T09:13:56.907Z,1.90
2019-05-13T09:14:56.872Z,1.70
2019-05-13T09:15:56.858Z,1.70
2019-05-13T09:16:56.885Z,2.10
2019-05-13T09:17:56.854Z,1.80
2019-05-13T09:18:56.852Z,1.90
2019-05-13T09:19:56.855Z,1.90
2019-05-13T09:20:56.815Z,1.70
2019-05-13T09:21:56.806Z,1.60
2019-05-13T09:22:56.799Z,1.70
2019-05-13T09:23:56.795Z,1.60
2019-05-13T09:24:56.776Z,1.50
2019-05-13T09:25:56.793Z,1.70
2019-05-13T09:26:56.740Z,1.60
2019-05-13T09:27:56.738Z,1.50
2019-05-13T09:28:56.724Z,1.60
2019-05-13T09:29:56.714Z,1.50
2019-05-13T09:30:56.715Z,1.60
2019-05-13T09:31:56.687Z,1.70
2019-05-13T09:32:56.736Z,1.50
2019-05-13T09:33:56.657Z,1.50
2019-05-13T09:34:56.664Z,1.60
2019-05-13T09:35:56.650Z,1.60
2019-05-13T09:36:56.654Z,1.60
2019-05-13T09:37:56.611Z,1.60
2019-05-13T09:38:56.608Z,1.50
2019-05-13T09:39:56.611Z,1.60
2019-05-13T09:40:56.593Z,1.70
2019-05-13T09:41:56.583Z,1.50
2019-05-13T09:42:56.557Z,1.80
2019-05-13T09:43:56.548Z,1.70
2019-05-13T09:44:56.551Z,1.80
2019-05-13T09:45:56.552Z,1.60
2019-05-13T09:46:56.545Z,1.70
2019-05-13T09:47:56.516Z,2.00
2019-05-13T09:49:11.736Z,1.60
2019-05-13T09:49:57.481Z,1.80
2019-05-13T09:50:56.464Z,1.90
2019-05-13T09:51:56.455Z,2.00
2019-05-13T09:52:56.463Z,1.90
2019-05-13T09:53:56.460Z,2.10
2019-05-13T09:54:56.423Z,1.90
2019-05-13T09:55:56.407Z,2.00
2019-05-13T09:56:56.408Z,1.80
2019-05-13T09:57:56.398Z,1.80
2019-05-13T09:58:56.441Z,2.00
2019-05-13T09:59:56.381Z,1.90
2019-05-13T10:00:56.364Z,1.80
2019-05-13T10:01:56.398Z,2.20
2019-05-13T10:02:56.348Z,2.00
2019-05-13T10:03:58.193Z,2.20
2019-05-13T10:04:56.325Z,1.90
2019-05-13T10:05:56.339Z,1.70
2019-05-13T10:06:56.289Z,1.60
2019-05-13T10:07:56.277Z,1.80
2019-05-13T10:08:56.287Z,1.90
2019-05-13T10:09:56.263Z,1.80
2019-05-13T10:10:56.263Z,1.80
2019-05-13T10:11:56.270Z,2.10
2019-05-13T10:13:07.994Z,1.90
2019-05-13T10:13:56.236Z,1.90
2019-05-13T10:14:56.203Z,1.90
2019-05-13T10:15:56.202Z,1.80
2019-05-13T10:16:56.198Z,2.00
2019-05-13T10:17:56.226Z,2.30
2019-05-13T10:18:56.210Z,2.20
2019-05-13T10:19:56.158Z,2.10
2019-05-13T10:20:58.445Z,1.90
2019-05-13T10:21:56.139Z,2.00
2019-05-13T10:22:56.128Z,1.70
2019-05-13T10:23:58.733Z,2.10
2019-05-13T10:24:56.136Z,2.10
2019-05-13T10:25:56.101Z,2.10
2019-05-13T10:26:56.089Z,2.10
2019-05-13T10:27:56.055Z,2.10
2019-05-13T10:28:56.087Z,2.00
2019-05-13T10:29:56.080Z,2.00
2019-05-13T10:30:56.035Z,2.30
2019-05-13T10:31:56.007Z,2.20
2019-05-13T10:32:59.445Z,1.80
2019-05-13T10:33:56.011Z,2.00
2019-05-13T10:34:55.994Z,1.90
2019-05-13T10:35:55.967Z,1.90
2019-05-13T10:36:55.966Z,1.80
2019-05-13T10:37:55.940Z,1.80
2019-05-13T10:38:55.934Z,2.20
2019-05-13T10:39:55.931Z,2.10
2019-05-13T10:40:55.961Z,2.00
2019-05-13T10:41:55.893Z,2.20
2019-05-13T10:42:55.953Z,2.20
2019-05-13T10:43:55.905Z,1.90
2019-05-13T10:44:55.872Z,2.00
2019-05-13T10:45:55.884Z,2.00
2019-05-13T10:46:55.870Z,2.10
2019-05-13T10:47:55.859Z,2.30
2019-05-13T10:48:55.844Z,1.70
2019-05-13T10:49:55.832Z,1.90
2019-05-13T10:50:55.807Z,1.90
2019-05-13T10:51:55.796Z,2.10
2019-05-13T10:52:55.804Z,2.20
2019-05-13T10:53:59.398Z,2.00
2019-05-13T10:54:55.771Z,2.10
2019-05-13T10:55:55.736Z,2.20
2019-05-13T10:56:59.474Z,2.20
2019-05-13T10:57:55.738Z,2.20
2019-05-13T10:58:55.707Z,2.30
2019-05-13T10:59:59.665Z,2.00
2019-05-13T11:00:55.683Z,2.20
2019-05-13T11:01:55.693Z,2.10
2019-05-13T11:02:55.674Z,2.20
2019-05-13T11:03:55.673Z,2.30
2019-05-13T11:04:55.639Z,2.20
2019-05-13T11:05:55.705Z,1.90
2019-05-13T11:06:55.617Z,2.00
2019-05-13T11:07:55.610Z,1.90
2019-05-13T11:08:55.619Z,2.20
2019-05-13T11:09:55.615Z,1.90
2019-05-13T11:10:55.576Z,2.00
2019-05-13T11:11:55.597Z,2.00
2019-05-13T11:12:55.562Z,1.90
2019-05-13T11:13:59.360Z,2.00
2019-05-13T11:14:56.559Z,1.90
2019-05-13T11:15:58.252Z,1.80
2019-05-13T11:16:55.502Z,1.90
2019-05-13T11:17:55.511Z,1.90
2019-05-13T11:18:55.496Z,1.90
2019-05-13T11:19:55.499Z,1.90
2019-05-13T11:20:55.470Z,2.00
2019-05-13T11:21:55.557Z,1.90
2019-05-13T11:22:55.450Z,1.80
2019-05-13T11:23:55.427Z,1.90
2019-05-13T11:24:55.449Z,2.20
2019-05-13T11:25:55.414Z,2.00
2019-05-13T11:26:55.409Z,2.10
2019-05-13T11:27:58.339Z,2.10
2019-05-13T11:28:55.368Z,2.20
2019-05-13T11:29:55.378Z,2.10
2019-05-13T11:30:59.607Z,2.10
2019-05-13T11:31:55.354Z,1.60
2019-05-13T11:32:55.376Z,1.70
2019-05-13T11:33:55.311Z,1.80
2019-05-13T11:34:55.306Z,1.70
2019-05-13T11:35:55.288Z,1.70
2019-05-13T11:36:55.279Z,1.60
2019-05-13T11:37:55.299Z,1.80
2019-05-13T11:38:55.298Z,1.80
2019-05-13T11:39:55.243Z,1.70
2019-05-13T11:40:55.232Z,1.70
2019-05-13T11:41:55.221Z,1.80
2019-05-13T11:42:55.263Z,1.70
2019-05-13T11:44:12.117Z,1.80
2019-05-13T11:44:56.194Z,1.60
2019-05-13T11:45:55.176Z,1.70
2019-05-13T11:46:55.164Z,1.50
2019-05-13T11:47:55.168Z,1.90
2019-05-13T11:48:55.165Z,1.90
2019-05-13T11:49:55.148Z,1.90
2019-05-13T11:50:55.150Z,2.00
2019-05-13T11:51:55.121Z,2.00
2019-05-13T11:52:55.115Z,1.70
2019-05-13T11:53:55.087Z,1.70
2019-05-13T11:54:55.093Z,1.60
2019-05-13T11:55:55.095Z,1.70
2019-05-13T11:57:56.061Z,1.70
2019-05-13T11:58:55.042Z,1.90
2019-05-13T11:59:55.024Z,1.60
2019-05-13T12:00:55.034Z,1.50
2019-05-13T12:01:55.028Z,1.70
2019-05-13T12:02:54.987Z,1.70
2019-05-13T12:03:54.992Z,1.70
2019-05-13T12:04:54.965Z,1.80
2019-05-13T12:05:54.958Z,1.90
2019-05-13T12:06:55.056Z,1.80
2019-05-13T12:07:54.961Z,1.60
2019-05-13T12:08:55.552Z,1.80
2019-05-13T12:09:54.917Z,1.90
2019-05-13T12:10:54.958Z,2.20
2019-05-13T12:11:54.897Z,2.10
2019-05-13T12:12:54.911Z,1.70
2019-05-13T12:13:54.897Z,1.60
2019-05-13T12:15:22.389Z,1.50
2019-05-13T12:15:55.887Z,1.60
2019-05-13T12:16:54.838Z,1.50
2019-05-13T12:17:54.832Z,1.20
2019-05-13T12:18:54.855Z,1.40
2019-05-13T12:19:54.817Z,1.30
2019-05-13T12:20:54.791Z,1.40
2019-05-13T12:21:54.817Z,1.30
2019-05-13T12:22:54.772Z,1.30
2019-05-13T12:23:54.771Z,1.50
2019-05-13T12:24:54.761Z,1.30
2019-05-13T12:25:54.770Z,1.50
2019-05-13T12:26:54.724Z,1.50
2019-05-13T12:27:54.709Z,1.40
2019-05-13T12:28:54.706Z,1.60
2019-05-13T12:29:54.716Z,1.60
2019-05-13T12:30:54.695Z,1.50
2019-05-13T12:31:54.734Z,1.80
2019-05-13T12:32:54.662Z,1.50
2019-05-13T12:33:54.688Z,1.60
2019-05-13T12:34:55.175Z,1.40
2019-05-13T12:35:54.637Z,1.40
2019-05-13T12:36:54.630Z,1.40
2019-05-13T12:37:54.635Z,1.70
2019-05-13T12:38:54.663Z,1.50
2019-05-13T12:39:54.657Z,1.60
2019-05-13T12:40:54.576Z,1.70
2019-05-13T12:41:54.627Z,1.40
2019-05-13T12:42:54.559Z,1.50
2019-05-13T12:43:54.534Z,1.40
2019-05-13T12:45:09.444Z,1.30
2019-05-13T12:45:55.553Z,1.40
2019-05-13T12:46:54.690Z,1.60
2019-05-13T12:47:54.496Z,1.20
2019-05-13T12:48:54.515Z,1.60
2019-05-13T12:49:54.465Z,1.40
2019-05-13T12:50:54.504Z,1.30
2019-05-13T12:52:00.795Z,1.30
2019-05-13T12:52:55.451Z,1.40
2019-05-13T12:53:54.436Z,1.40
2019-05-13T12:54:54.430Z,1.60
2019-05-13T12:55:56.855Z,1.50
2019-05-13T12:56:54.383Z,1.40
2019-05-13T12:57:54.410Z,1.50
2019-05-13T12:58:54.398Z,1.30
2019-05-13T12:59:54.388Z,1.30
2019-05-13T13:00:54.379Z,1.40
2019-05-13T13:01:54.379Z,1.40
2019-05-13T13:02:54.321Z,1.50
2019-05-13T13:03:54.312Z,1.40
2019-05-13T13:05:10.579Z,1.40
2019-05-13T13:06:21.218Z,1.40
2019-05-13T13:06:54.302Z,1.40
2019-05-13T13:08:16.660Z,1.40
2019-05-13T13:08:54.266Z,1.50